Sidney, Montana
Current Conditions -  °F | °C
As of 3:15 PM on Thursday 23 Oct 2014 (Local Time) from KSDY Reporting Station
Clear Clear  
Wind Chill: 64°   Ceiling: Unl
Heat Index: 64°   Visibility: 10mi
Dew Point: 36°   Wind: 10mph
Humidity: 34%   Direction: 170°S
Pressure: 29.8"   Gusts: NA
Location:  47.71°N, 104.16°W
Report Text: KSDY 232115Z AUTO 17009KT 10SM CLR 18/02 A2980 RMK AO1
Loading
Personal Weather Stations






























Interactive Weather Map
Tropical Storm Tracking
New forecast layout! Learn more

10-Day Weather Forecast

Advertisements
Track Severe Weather on mobile